Aérodrome :
LOGIN :

S'inscrire | Disclaimer

   EN    FR    IT 

 










Légende :    VFR   VFR Marginal   IFR   IFR Intensif   IFR Très Intensif
Visi : 
Plafond : 
>= 8 km
>= 3000ft
5 à 8 km
1000 à 3000 ft
1500m à 5 km
500 à 1000 ft
800 à 1500m
200 à 500 ft
< 800m
< 200 ft
Symboles :   Orages  Brouillard  Fortes neiges  Fortes précipitations  Vent > 20 kt
SIGMETs :   Divers  Orages  Givrage  Turbulence  Onde Orograph.  Cendres Volcan.







- Altitude de l'aérodrome : 392 ft
- Code IATA : CDG
- Voir les cartes d'approche


LFPG - Paris-Aeroport Charles De Gaulle

DERNIER METAR :
  • 221400Z 19006KT 170V260 0750 R27L/1400D R09R/1200U R26R/1200D R08L/1400D R26L/P2000 R08R/1600D R27R/1200D R09L/1200N SN FEW002 BKN003 01/M00 Q1004 R27R/590350 R27L/590350 TEMPO -SN

METARs EXPIRÉS :
  • 221330Z 19008KT 2000 BR BKN004 00/M00 Q1005 R27R/590350 R27L/590350 TEMPO -SN
  • 221300Z 19009KT 1500 BKN003 00/M00 Q1005 R27R/590350 R27L/590350 NOSIG
  • 221230Z 20010KT 1000 R27L/1900U R09R/1900U R26R/1300U R08L/2000N R26L/P2000 R08R/1900D R27R/1900D R09L/1900U -SN BKN003 BKN013 00/M01 Q1005 R27R/590350 R27L/590350 BECMG 3000 BR BKN008 R27R/590350 R27L/590350
  • 221208Z 18009KT 0700 R27L/1400D R09R/1500U R26R/1300N R08L/1400U R26L/1500N R08R/1100U R27R/1300D R09L/1400U -SN BKN003 BKN013 00/M01 Q1005 R27R/590350 R27L/590350 BECMG 3000 BR BKN008 R27R/590350 R27L/590350
  • 221130Z 19007KT 0800 R27L/1200N R09R/1200D R26R/1300D R08L/1200D R26L/1300D R08R/1000U R27R/1300D R09L/1200N -SN FEW003 BKN004 M00/M01 Q1006 TEMPO 0800 SN R27R/590350 R27L/590350 R26R/590350 R26L/590350

TAF AMD TAF LFPG
Valide du 22 à 13h jusqu'au 23 à 18h UTC


221305Z 2213/2318 19010KT 1500 -SN BKN004 TX02/2216Z TN00/2300Z
BECMG 2214/2216 3000 BR BKN008
TEMPO 2221/2302 0800 -SHSN BKN003
BECMG 2302/2304 30005KT
PROB40
TEMPO 2303/2308 BKN003
BECMG 2308/2310 6000 NSW BKN012
PROB40
TEMPO 2308/2311 1500 -SHSN
PROB40
TEMPO 2312/2315 0800 SHSN SCT010CB BKN012
ATIS : +33 1 48 62 10 92
Pas de NOTAMs connus pour ce terrain.



MET'MAP, la Météo Aéronautique d'un coup d'oeil ! - Copyright ORBIFLY Décembre 2007 - Disclaimer

ORBIFLY MET'MAP TEAM :

Programmation & Développement : Alexandra Zaïnal
Conception & Développement : Baudouin d'Aumeries
Co-Programmation & Développement : Marc-Olivier Méhu
Soutien technique & logistique : Manuel Goepfert

Contact : metmap@orbifly.com




SOURCES & CREDITS :

   NOAA